Time;durP1;ratioP1;P1;durP2;ratioP2;P2;SDS_P1;SDS_P2;PMS_P1;PMS_P2;Temp;Humidity;BMP_temperature;BMP_pressure;BME280_temperature;BME280_humidity;BME280_pressure;Samples;Min_cycle;Max_cycle;Signal;HPM_P1;HPM_P2
2023/08/05 00:00:44;;;;;;;2.13;1.92;;;20.40;64.10;;;;;;5006827;28;20096;-52
2023/08/05 00:03:11;;;;;;;4.53;2.20;;;20.40;64.00;;;;;;5010497;28;20470;-51
2023/08/05 00:05:38;;;;;;;2.33;1.75;;;20.40;63.90;;;;;;5005869;28;20044;-51
2023/08/05 00:08:10;;;;;;;1.92;1.83;;;20.40;64.20;;;;;;5007478;28;20045;-51
2023/08/05 00:10:46;;;;;;;2.03;1.80;;;20.40;64.40;;;;;;5007836;28;20096;-51
2023/08/05 00:13:14;;;;;;;3.17;2.00;;;20.40;64.70;;;;;;5006276;28;20188;-50
2023/08/05 00:15:43;;;;;;;2.92;1.83;;;20.40;64.40;;;;;;5015306;28;20061;-52
2023/08/05 00:18:10;;;;;;;3.20;2.25;;;20.40;64.40;;;;;;5012042;28;20045;-52
2023/08/05 00:20:36;;;;;;;2.25;2.05;;;20.40;64.40;;;;;;5011146;28;20049;-52
2023/08/05 00:23:03;;;;;;;1.90;1.80;;;20.40;64.50;;;;;;5011796;28;20482;-52
2023/08/05 00:25:34;;;;;;;2.33;2.10;;;20.40;64.50;;;;;;5011795;28;20464;-52
2023/08/05 00:28:01;;;;;;;2.08;1.83;;;20.40;64.80;;;;;;5011548;28;20084;-52
2023/08/05 00:30:31;;;;;;;2.38;2.17;;;20.30;64.40;;;;;;5006029;28;20132;-52
2023/08/05 00:33:05;;;;;;;;;;;20.40;64.70;;;;;;5010997;28;20651;-50
2023/08/05 00:35:32;;;;;;;3.28;1.92;;;20.40;64.50;;;;;;5012879;28;20344;-52
2023/08/05 00:38:01;;;;;;;2.65;1.80;;;20.40;64.40;;;;;;5009644;28;20042;-50
2023/08/05 00:40:31;;;;;;;4.20;2.53;;;20.40;64.70;;;;;;5011074;28;20042;-52
2023/08/05 00:43:02;;;;;;;2.58;2.03;;;20.30;64.40;;;;;;5011204;28;20042;-52
2023/08/05 00:45:30;;;;;;;4.85;2.50;;;20.30;64.40;;;;;;5011749;28;20635;-51
2023/08/05 00:48:00;;;;;;;2.65;2.28;;;20.30;64.40;;;;;;5007055;28;20038;-52
2023/08/05 00:50:29;;;;;;;2.63;2.15;;;20.20;64.40;;;;;;5011208;28;20050;-52
2023/08/05 00:52:56;;;;;;;2.30;2.10;;;20.20;64.40;;;;;;5011018;28;20053;-48
2023/08/05 00:55:23;;;;;;;2.30;2.15;;;20.20;64.40;;;;;;5011869;28;20045;-52
2023/08/05 00:57:50;;;;;;;3.17;2.40;;;20.20;64.40;;;;;;5011179;28;20045;-52
2023/08/05 01:00:21;;;;;;;3.57;2.63;;;20.20;64.30;;;;;;5006182;28;20412;-52
2023/08/05 01:02:51;;;;;;;3.55;2.72;;;20.10;64.30;;;;;;5010753;28;20060;-50
2023/08/05 01:05:20;;;;;;;2.63;2.42;;;20.10;64.40;;;;;;5017813;28;20060;-52
2023/08/05 01:07:50;;;;;;;2.58;2.33;;;20.10;64.50;;;;;;5010423;28;20037;-51
2023/08/05 01:10:18;;;;;;;3.10;2.42;;;20.00;64.40;;;;;;5008509;28;20352;-52
2023/08/05 01:12:44;;;;;;;2.65;2.00;;;20.00;64.40;;;;;;5010025;28;20512;-51
2023/08/05 01:15:14;;;;;;;2.70;2.50;;;20.00;64.50;;;;;;5010231;28;20053;-52
2023/08/05 01:17:41;;;;;;;2.50;2.28;;;20.00;64.60;;;;;;5009841;28;20050;-50
2023/08/05 01:20:10;;;;;;;2.60;2.40;;;19.90;64.70;;;;;;5011153;28;20030;-52
2023/08/05 01:22:43;;;;;;;3.72;2.30;;;19.90;64.80;;;;;;5009493;28;20500;-51
2023/08/05 01:25:31;;;;;;;4.13;2.33;;;19.90;65.00;;;;;;5009595;28;20100;-52
2023/08/05 01:28:00;;;;;;;2.92;2.40;;;19.90;65.20;;;;;;5003081;28;20042;-52
2023/08/05 01:30:32;;;;;;;3.83;2.30;;;19.80;64.90;;;;;;5008933;28;20042;-52
2023/08/05 01:33:00;;;;;;;4.10;2.38;;;19.80;64.90;;;;;;5008371;28;20195;-49
2023/08/05 01:35:29;;;;;;;3.10;2.15;;;19.70;64.90;;;;;;5011371;28;20037;-52
2023/08/05 01:37:56;;;;;;;3.25;2.13;;;19.70;64.90;;;;;;5009021;28;20096;-52
2023/08/05 01:40:28;;;;;;;2.42;2.22;;;19.70;64.80;;;;;;5011241;28;20042;-51
2023/08/05 01:43:02;;;;;;;6.43;3.13;;;19.60;64.90;;;;;;5009083;28;20041;-52
2023/08/05 01:45:33;;;;;;;3.00;2.13;;;19.60;65.00;;;;;;5011471;28;20049;-52
2023/08/05 01:48:04;;;;;;;2.53;2.10;;;19.50;64.80;;;;;;5009722;28;20127;-52
2023/08/05 01:50:31;;;;;;;2.70;2.40;;;19.50;65.20;;;;;;5008805;28;20046;-51
2023/08/05 01:52:58;;;;;;;2.55;2.22;;;19.50;65.20;;;;;;5008681;28;20038;-52
2023/08/05 01:55:26;;;;;;;3.95;3.55;;;19.40;65.20;;;;;;5009496;28;20048;-51
2023/08/05 01:57:53;;;;;;;4.13;2.45;;;19.40;65.30;;;;;;5009774;28;20403;-50
2023/08/05 02:00:21;;;;;;;2.45;2.20;;;19.30;65.30;;;;;;5000258;28;20595;-52
2023/08/05 02:02:53;;;;;;;3.15;2.30;;;19.30;65.30;;;;;;5008070;28;20796;-51
2023/08/05 02:05:24;;;;;;;2.58;2.05;;;19.20;65.40;;;;;;5016794;28;20508;-50
2023/08/05 02:07:51;;;;;;;2.83;2.63;;;19.20;65.40;;;;;;5004894;28;20041;-50
2023/08/05 02:10:17;;;;;;;2.47;2.20;;;19.10;65.20;;;;;;5008614;28;20041;-52
2023/08/05 02:12:44;;;;;;;2.55;2.35;;;19.10;65.20;;;;;;5008155;28;20135;-52
2023/08/05 02:15:16;;;;;;;2.40;2.20;;;19.00;65.10;;;;;;5005389;28;20137;-52
2023/08/05 02:17:43;;;;;;;3.38;2.25;;;19.00;65.30;;;;;;5007382;28;20095;-50
2023/08/05 02:20:18;;;;;;;2.40;2.20;;;18.90;65.10;;;;;;5008171;28;20046;-52
2023/08/05 02:22:47;;;;;;;3.53;2.20;;;18.90;65.60;;;;;;5008837;28;20038;-52
2023/08/05 02:25:16;;;;;;;4.03;3.05;;;18.90;65.50;;;;;;5006776;28;20069;-51
2023/08/05 02:27:45;;;;;;;2.97;2.47;;;18.80;65.60;;;;;;5008923;28;20030;-52
2023/08/05 02:30:14;;;;;;;4.60;2.80;;;18.80;65.70;;;;;;5004680;28;20077;-52
2023/08/05 02:32:44;;;;;;;5.57;3.10;;;18.70;65.80;;;;;;5009000;28;20034;-51
2023/08/05 02:35:13;;;;;;;4.22;2.70;;;18.70;66.10;;;;;;5010281;28;20490;-52
2023/08/05 02:37:40;;;;;;;2.88;2.60;;;18.70;66.70;;;;;;5008810;28;20088;-49
2023/08/05 02:40:07;;;;;;;3.20;2.40;;;18.70;66.70;;;;;;5012738;28;20068;-51
2023/08/05 02:42:37;;;;;;;2.83;2.60;;;18.70;66.90;;;;;;5009096;28;20046;-52
2023/08/05 02:45:06;;;;;;;3.15;2.30;;;18.70;67.00;;;;;;5008765;28;20570;-52
2023/08/05 02:47:34;;;;;;;3.63;2.50;;;18.70;67.20;;;;;;5008391;28;20069;-52
2023/08/05 02:50:02;;;;;;;2.85;2.65;;;18.70;67.20;;;;;;5007798;28;20054;-52
2023/08/05 02:52:29;;;;;;;3.97;2.88;;;18.70;67.30;;;;;;5008945;28;20052;-51
2023/08/05 02:54:56;;;;;;;3.22;2.63;;;18.80;67.50;;;;;;5009839;28;20044;-51
2023/08/05 02:57:25;;;;;;;3.65;3.08;;;18.80;67.50;;;;;;5006801;28;20037;-51
2023/08/05 02:59:54;;;;;;;4.07;2.63;;;18.80;67.50;;;;;;5007874;28;20029;-48
2023/08/05 03:02:21;;;;;;;6.32;3.53;;;18.80;67.40;;;;;;5006637;28;20049;-50
2023/08/05 03:04:48;;;;;;;3.22;2.53;;;18.80;67.20;;;;;;5005013;28;20042;-52
2023/08/05 03:07:17;;;;;;;3.35;2.50;;;18.80;67.00;;;;;;5007328;28;20042;-50
2023/08/05 03:09:43;;;;;;;2.97;2.67;;;18.80;67.00;;;;;;5005625;28;20096;-50
2023/08/05 03:12:11;;;;;;;3.30;2.72;;;18.70;66.90;;;;;;5007157;28;20099;-49
2023/08/05 03:14:40;;;;;;;3.15;2.83;;;18.70;66.90;;;;;;5008509;28;20034;-52
2023/08/05 03:17:11;;;;;;;3.78;3.20;;;18.70;67.30;;;;;;5004990;28;20041;-52
2023/08/05 03:19:42;;;;;;;3.00;2.78;;;18.70;67.20;;;;;;5008163;28;20057;-52
2023/08/05 03:22:09;;;;;;;3.58;2.60;;;18.70;67.30;;;;;;5013538;28;20053;-51
2023/08/05 03:24:41;;;;;;;4.65;3.33;;;18.60;67.40;;;;;;5008619;28;20057;-51
2023/08/05 03:27:08;;;;;;;5.47;4.05;;;18.60;67.50;;;;;;5007035;28;20038;-48
2023/08/05 03:29:38;;;;;;;4.13;3.55;;;18.60;67.70;;;;;;5007093;28;20103;-47
2023/08/05 03:32:08;;;;;;;3.88;3.50;;;18.60;67.90;;;;;;5004368;28;20573;-51
2023/08/05 03:34:34;;;;;;;3.85;3.42;;;18.60;67.90;;;;;;5008092;28;20042;-49
2023/08/05 03:37:02;;;;;;;6.15;3.72;;;18.50;68.00;;;;;;5004355;28;20030;-52
2023/08/05 03:39:30;;;;;;;5.97;3.67;;;18.60;68.10;;;;;;5008451;28;20040;-50
2023/08/05 03:41:57;;;;;;;4.72;4.25;;;18.50;68.10;;;;;;5023507;28;20069;-52
2023/08/05 03:44:30;;;;;;;6.57;4.17;;;18.50;68.10;;;;;;5008137;28;20466;-52
2023/08/05 03:46:57;;;;;;;4.43;3.78;;;18.50;68.10;;;;;;5005850;28;20053;-48
2023/08/05 03:49:27;;;;;;;4.75;4.32;;;18.50;68.30;;;;;;5011557;28;20054;-52
2023/08/05 03:51:53;;;;;;;5.40;3.90;;;18.40;68.40;;;;;;5027905;28;20049;-50
2023/08/05 03:54:24;;;;;;;4.97;4.18;;;18.40;68.30;;;;;;5011120;28;20056;-47
2023/08/05 03:56:51;;;;;;;4.70;4.20;;;18.40;68.40;;;;;;5008352;28;20575;-49
2023/08/05 03:59:22;;;;;;;4.30;3.90;;;18.40;68.40;;;;;;5005635;28;20124;-49
2023/08/05 04:01:52;;;;;;;7.30;4.53;;;18.30;68.50;;;;;;5012058;28;20042;-48
2023/08/05 04:04:18;;;;;;;5.50;4.30;;;18.30;68.70;;;;;;5011941;28;20049;-50
2023/08/05 04:06:45;;;;;;;4.82;4.07;;;18.30;68.50;;;;;;5011760;28;20041;-48
2023/08/05 04:09:14;;;;;;;4.75;3.95;;;18.30;68.60;;;;;;5010822;28;20141;-52
2023/08/05 04:11:41;;;;;;;6.13;4.28;;;18.30;68.60;;;;;;5010891;28;20069;-50
2023/08/05 04:14:09;;;;;;;4.40;4.00;;;18.30;68.70;;;;;;5011865;28;20522;-52
2023/08/05 04:16:37;;;;;;;4.30;3.88;;;18.30;68.80;;;;;;5012945;28;20104;-49
2023/08/05 04:19:11;;;;;;;6.00;4.45;;;18.30;68.80;;;;;;5011533;28;20046;-50
2023/08/05 04:21:45;;;;;;;6.45;4.35;;;18.20;68.70;;;;;;5011485;28;20061;-51
2023/08/05 04:24:16;;;;;;;5.22;4.55;;;18.30;68.80;;;;;;5012789;28;20046;-52
2023/08/05 04:26:44;;;;;;;5.43;4.40;;;18.20;68.70;;;;;;5011227;28;20048;-52
2023/08/05 04:29:17;;;;;;;4.63;3.80;;;18.20;68.70;;;;;;5011407;28;20136;-50
2023/08/05 04:31:48;;;;;;;6.25;4.65;;;18.20;68.70;;;;;;5015554;28;20450;-49
2023/08/05 04:34:15;;;;;;;4.35;3.80;;;18.20;68.90;;;;;;5012506;28;20046;-48
2023/08/05 04:36:53;;;;;;;8.13;4.57;;;18.20;68.80;;;;;;5011254;28;20045;-49
2023/08/05 04:39:21;;;;;;;5.93;4.57;;;18.20;69.20;;;;;;5011898;28;20072;-49
2023/08/05 04:41:47;;;;;;;6.57;4.70;;;18.10;68.90;;;;;;5011654;28;20060;-52
2023/08/05 04:44:14;;;;;;;5.90;4.40;;;18.20;69.00;;;;;;5012686;28;20100;-48
2023/08/05 04:46:41;;;;;;;9.32;5.70;;;18.20;69.00;;;;;;5011399;28;20437;-50
2023/08/05 04:49:09;;;;;;;6.40;4.60;;;18.20;69.10;;;;;;5011599;28;20038;-52
2023/08/05 04:51:36;;;;;;;4.97;4.57;;;18.10;69.10;;;;;;5011147;28;20100;-50
2023/08/05 04:54:04;;;;;;;5.47;4.90;;;18.10;69.80;;;;;;5011529;28;20057;-52
2023/08/05 04:56:33;;;;;;;6.22;4.50;;;18.10;69.30;;;;;;5010027;28;20416;-49
2023/08/05 04:59:04;;;;;;;6.03;5.43;;;18.10;69.30;;;;;;5011090;28;20036;-52
2023/08/05 05:01:32;;;;;;;5.72;5.13;;;18.20;69.40;;;;;;5011551;28;20112;-49
2023/08/05 05:04:04;;;;;;;6.03;5.32;;;18.10;69.30;;;;;;5011522;28;20077;-49
2023/08/05 05:06:30;;;;;;;5.50;4.85;;;18.10;69.20;;;;;;5023059;23;20058;-51
2023/08/05 05:09:00;;;;;;;6.13;4.22;;;18.10;69.30;;;;;;5006280;28;20034;-51
2023/08/05 05:11:29;;;;;;;7.50;5.50;;;18.10;69.40;;;;;;5008766;28;20464;-55
2023/08/05 05:13:57;;;;;;;6.38;5.07;;;18.10;69.60;;;;;;5011322;28;20066;-49
2023/08/05 05:16:26;;;;;;;5.13;4.55;;;18.10;69.60;;;;;;5005764;28;20129;-52
2023/08/05 05:18:53;;;;;;;5.78;5.10;;;18.10;69.60;;;;;;4991510;28;20038;-52
2023/08/05 05:21:22;;;;;;;6.13;4.97;;;18.10;69.90;;;;;;4991268;28;20121;-49
2023/08/05 05:23:49;;;;;;;7.22;5.28;;;18.10;70.10;;;;;;4991918;28;20745;-51
2023/08/05 05:26:20;;;;;;;7.53;5.13;;;18.10;70.20;;;;;;4990046;28;20050;-49
2023/08/05 05:28:46;;;;;;;6.55;5.63;;;18.20;70.40;;;;;;4990742;28;20524;-52
2023/08/05 05:31:16;;;;;;;6.75;5.75;;;18.20;70.40;;;;;;4991672;28;20058;-53
2023/08/05 05:33:47;;;;;;;5.43;4.93;;;18.20;70.50;;;;;;4988836;28;20109;-50
2023/08/05 05:36:16;;;;;;;5.28;4.78;;;18.20;70.50;;;;;;4991677;28;20081;-54
2023/08/05 05:38:44;;;;;;;5.32;4.78;;;18.30;70.60;;;;;;4990870;28;20030;-50
2023/08/05 05:41:12;;;;;;;5.47;4.80;;;18.30;70.60;;;;;;4987585;28;20119;-51
2023/08/05 05:43:42;;;;;;;6.35;5.60;;;18.40;70.70;;;;;;4990404;28;20030;-54
2023/08/05 05:46:09;;;;;;;8.25;5.13;;;18.40;70.80;;;;;;4988973;28;20505;-50
2023/08/05 05:48:36;;;;;;;6.20;5.07;;;18.50;70.80;;;;;;4991589;28;20054;-52
2023/08/05 05:51:04;;;;;;;7.47;5.90;;;18.50;70.50;;;;;;4992177;28;20046;-52
2023/08/05 05:53:31;;;;;;;9.10;5.57;;;18.50;70.50;;;;;;4990350;28;20121;-50
2023/08/05 05:55:59;;;;;;;5.97;5.32;;;18.60;70.50;;;;;;4990314;28;20049;-52
2023/08/05 05:58:34;;;;;;;7.35;5.50;;;18.60;70.50;;;;;;4985960;28;20456;-52
2023/08/05 06:01:04;;;;;;;6.35;5.55;;;18.70;70.40;;;;;;4990261;28;20572;-55
2023/08/05 06:03:33;;;;;;;7.20;6.30;;;18.70;70.30;;;;;;4989190;28;20062;-51
2023/08/05 06:06:00;;;;;;;6.38;5.78;;;18.70;70.20;;;;;;4989718;28;20060;-51
2023/08/05 06:08:27;;;;;;;6.82;5.97;;;18.80;70.20;;;;;;4988683;28;20066;-51
2023/08/05 06:11:03;;;;;;;7.78;5.97;;;18.90;70.10;;;;;;4988874;28;20136;-53
2023/08/05 06:13:36;;;;;;;6.93;6.22;;;18.90;70.00;;;;;;4988733;28;20054;-51
2023/08/05 06:16:03;;;;;;;6.82;6.13;;;19.00;70.10;;;;;;4990438;28;20122;-50
2023/08/05 06:18:33;;;;;;;5.97;5.38;;;19.00;69.90;;;;;;4990129;28;20505;-54
2023/08/05 06:21:00;;;;;;;6.72;5.95;;;19.10;70.00;;;;;;4987984;28;20046;-53
2023/08/05 06:23:29;;;;;;;8.55;5.45;;;19.10;69.70;;;;;;4975475;28;20070;-50
2023/08/05 06:26:03;;;;;;;7.28;6.53;;;19.20;69.90;;;;;;4988842;28;20547;-53
2023/08/05 06:28:30;;;;;;;9.38;5.32;;;19.30;70.00;;;;;;4972681;28;20093;-52
2023/08/05 06:30:57;;;;;;;5.65;4.85;;;19.30;69.90;;;;;;4986455;28;20042;-51
2023/08/05 06:33:24;;;;;;;5.38;4.72;;;19.30;69.80;;;;;;4988623;28;20047;-56
2023/08/05 06:35:50;;;;;;;6.72;5.97;;;19.40;69.80;;;;;;4987861;28;20070;-52
2023/08/05 06:38:17;;;;;;;5.72;5.18;;;19.40;69.60;;;;;;4967390;28;20137;-50
2023/08/05 06:40:45;;;;;;;5.90;5.25;;;19.50;69.60;;;;;;4989269;28;20104;-53
2023/08/05 06:43:11;;;;;;;6.85;5.32;;;19.60;69.20;;;;;;4984596;28;20042;-51
2023/08/05 06:45:38;;;;;;;6.88;5.55;;;19.60;69.30;;;;;;4989378;28;20121;-51
2023/08/05 06:48:06;;;;;;;6.78;5.65;;;19.70;69.50;;;;;;4976513;28;20112;-57
2023/08/05 06:50:33;;;;;;;8.68;5.28;;;19.70;69.30;;;;;;4988236;28;20159;-53
2023/08/05 06:53:00;;;;;;;5.53;4.95;;;19.80;68.80;;;;;;4984495;28;20489;-51
2023/08/05 06:55:26;;;;;;;7.22;4.88;;;19.80;68.50;;;;;;4984413;28;20125;-53
2023/08/05 06:57:53;;;;;;;5.45;4.82;;;19.80;68.60;;;;;;4988908;28;20121;-54
2023/08/05 07:00:20;;;;;;;6.03;4.90;;;19.90;68.70;;;;;;4984922;28;20048;-54
2023/08/05 07:02:46;;;;;;;5.28;4.78;;;19.90;68.60;;;;;;4984763;28;20074;-51
2023/08/05 07:05:16;;;;;;;6.03;4.57;;;19.90;68.60;;;;;;4988081;28;20038;-53
2023/08/05 07:07:42;;;;;;;5.43;4.40;;;19.90;68.70;;;;;;4991578;28;20070;-51
2023/08/05 07:10:11;;;;;;;7.38;4.93;;;19.90;68.70;;;;;;4987644;28;20464;-52
2023/08/05 07:12:38;;;;;;;5.30;4.55;;;20.00;68.80;;;;;;4987078;28;20058;-50
2023/08/05 07:15:05;;;;;;;5.97;4.50;;;20.00;68.80;;;;;;4986550;28;20125;-52
2023/08/05 07:17:32;;;;;;;5.97;4.63;;;20.10;68.90;;;;;;4985633;28;20073;-50
2023/08/05 07:19:59;;;;;;;5.03;4.18;;;20.20;69.00;;;;;;4988923;28;20041;-55
2023/08/05 07:22:26;;;;;;;4.60;4.15;;;20.30;68.80;;;;;;4991218;28;20070;-53
2023/08/05 07:24:54;;;;;;;11.32;5.95;;;20.30;68.70;;;;;;4992585;28;20511;-49
2023/08/05 07:27:21;;;;;;;7.55;5.43;;;20.40;68.60;;;;;;4992745;28;20046;-56
2023/08/05 07:29:48;;;;;;;5.72;5.10;;;20.50;68.00;;;;;;4992005;28;20125;-53
2023/08/05 07:32:15;;;;;;;6.05;4.72;;;20.60;67.80;;;;;;4992276;28;20039;-51
2023/08/05 07:34:41;;;;;;;9.05;5.18;;;20.70;68.30;;;;;;4993286;28;20046;-53
2023/08/05 07:37:09;;;;;;;5.85;4.32;;;20.70;68.00;;;;;;4992862;28;20065;-55
2023/08/05 07:39:36;;;;;;;9.02;6.63;;;20.80;67.90;;;;;;4993516;28;20225;-54
2023/08/05 07:42:05;;;;;;;5.97;4.85;;;20.90;67.60;;;;;;4970472;28;20044;-49
2023/08/05 07:44:32;;;;;;;6.40;4.75;;;21.00;67.60;;;;;;4992190;28;20117;-53
2023/08/05 07:46:59;;;;;;;7.05;5.43;;;21.00;67.10;;;;;;4990484;28;20050;-50
2023/08/05 07:49:28;;;;;;;5.28;4.47;;;21.10;66.70;;;;;;4993558;28;20531;-52
2023/08/05 07:51:57;;;;;;;7.03;4.75;;;21.20;66.60;;;;;;4992884;28;20121;-54
2023/08/05 07:54:28;;;;;;;6.32;4.28;;;21.20;66.60;;;;;;4994030;28;20065;-54
2023/08/05 07:56:58;;;;;;;5.03;4.25;;;21.30;66.40;;;;;;4993268;28;20057;-52
2023/08/05 07:59:30;;;;;;;6.47;4.65;;;21.30;66.40;;;;;;4992336;28;20041;-52
2023/08/05 08:02:00;;;;;;;6.07;4.43;;;21.40;66.20;;;;;;4992371;28;20033;-50
2023/08/05 08:04:32;;;;;;;5.70;4.28;;;21.50;66.30;;;;;;4993811;28;20057;-51
2023/08/05 08:07:07;;;;;;;6.32;4.05;;;21.50;66.00;;;;;;4992024;28;20053;-52
2023/08/05 08:09:33;;;;;;;5.07;4.13;;;21.70;65.90;;;;;;4993737;28;20084;-53
2023/08/05 08:12:05;;;;;;;4.18;3.70;;;21.70;65.70;;;;;;4992695;28;20460;-53
2023/08/05 08:14:33;;;;;;;4.90;3.20;;;21.80;65.30;;;;;;4993823;28;20048;-53
2023/08/05 08:17:00;;;;;;;4.03;2.53;;;21.90;64.40;;;;;;4991255;28;20034;-52
2023/08/05 08:19:29;;;;;;;3.17;2.88;;;22.00;63.60;;;;;;4957041;28;20133;-50
2023/08/05 08:21:55;;;;;;;4.30;2.20;;;22.00;63.50;;;;;;4992083;28;20110;-51
2023/08/05 08:24:23;;;;;;;3.45;2.60;;;22.10;63.90;;;;;;4992186;28;20050;-51
2023/08/05 08:26:50;;;;;;;3.15;2.95;;;22.10;63.40;;;;;;4969376;28;20046;-52
2023/08/05 08:29:19;;;;;;;3.38;2.47;;;22.10;62.90;;;;;;4992281;28;20070;-50
2023/08/05 08:31:46;;;;;;;2.85;2.45;;;22.20;62.70;;;;;;4993805;28;20073;-55
2023/08/05 08:34:15;;;;;;;2.15;1.95;;;22.20;62.40;;;;;;4993410;28;20072;-53
2023/08/05 08:36:41;;;;;;;2.67;2.47;;;22.20;62.10;;;;;;4991954;28;20437;-52
2023/08/05 08:39:08;;;;;;;4.78;2.00;;;22.20;62.20;;;;;;4992457;28;20524;-51
2023/08/05 08:41:43;;;;;;;3.13;2.38;;;22.20;62.20;;;;;;4991850;28;20551;-54
2023/08/05 08:44:17;;;;;;;2.53;2.00;;;22.20;61.30;;;;;;4985528;28;20088;-53
2023/08/05 08:46:47;;;;;;;4.07;2.42;;;22.20;61.50;;;;;;4991184;28;20512;-50
2023/08/05 08:49:20;;;;;;;2.97;2.40;;;22.20;61.60;;;;;;4992913;28;20061;-49
2023/08/05 08:51:56;;;;;;;2.63;2.42;;;22.20;61.50;;;;;;4992631;28;20551;-54
2023/08/05 08:54:26;;;;;;;2.38;2.17;;;22.20;60.90;;;;;;4992259;28;20093;-51
2023/08/05 08:56:53;;;;;;;2.45;2.25;;;22.10;61.30;;;;;;4990889;28;20412;-50
2023/08/05 08:59:23;;;;;;;3.13;2.30;;;22.10;61.30;;;;;;4992016;28;20401;-55
2023/08/05 09:01:57;;;;;;;4.25;2.25;;;22.10;61.30;;;;;;4990627;28;20137;-53
2023/08/05 09:04:30;;;;;;;2.30;2.10;;;22.10;61.90;;;;;;4992372;28;20061;-51
2023/08/05 09:07:02;;;;;;;2.70;2.50;;;22.00;61.20;;;;;;4990853;28;20096;-51
2023/08/05 09:09:36;;;;;;;3.15;2.85;;;22.00;61.10;;;;;;4992981;28;20137;-50
2023/08/05 09:12:08;;;;;;;3.13;2.15;;;22.00;60.30;;;;;;4991626;28;20031;-54
2023/08/05 09:14:35;;;;;;;2.85;2.58;;;22.00;60.70;;;;;;4991149;28;20051;-52
2023/08/05 09:17:06;;;;;;;3.38;3.08;;;22.00;61.20;;;;;;4974276;28;20046;-52
2023/08/05 09:19:40;;;;;;;5.05;3.05;;;22.00;61.40;;;;;;4992400;28;20081;-54
2023/08/05 09:22:10;;;;;;;2.95;2.25;;;22.10;60.70;;;;;;4983708;28;20049;-56
2023/08/05 09:24:37;;;;;;;2.53;2.22;;;22.10;60.30;;;;;;4988167;28;20105;-54
2023/08/05 09:27:05;;;;;;;1.95;1.85;;;22.10;60.50;;;;;;4991556;28;20465;-54
2023/08/05 09:29:36;;;;;;;3.72;2.80;;;22.10;60.50;;;;;;4990720;28;20128;-50
2023/08/05 09:32:04;;;;;;;2.28;1.70;;;22.20;61.90;;;;;;4994942;28;20456;-49
2023/08/05 09:34:49;;;;;;;4.40;1.90;;;22.30;61.20;;;;;;4991766;28;20074;-55
2023/08/05 09:37:26;;;;;;;2.75;1.80;;;22.40;60.80;;;;;;4990478;28;20516;-52
2023/08/05 09:39:53;;;;;;;5.80;1.80;;;22.50;61.40;;;;;;4983195;28;20105;-49
2023/08/05 09:42:28;;;;;;;1.88;1.45;;;22.70;62.00;;;;;;4990880;28;20531;-53
2023/08/05 09:45:02;;;;;;;1.60;1.50;;;22.90;60.30;;;;;;4991199;28;20416;-51
2023/08/05 09:47:32;;;;;;;2.13;1.90;;;23.10;59.60;;;;;;4990416;28;20116;-51
2023/08/05 09:50:04;;;;;;;1.92;1.83;;;23.30;59.50;;;;;;4992134;28;20098;-52
2023/08/05 09:52:36;;;;;;;1.33;1.23;;;23.50;58.90;;;;;;4991046;28;20073;-53
2023/08/05 09:55:19;;;;;;;1.58;1.48;;;23.70;56.40;;;;;;4991285;28;20462;-50
2023/08/05 09:57:49;;;;;;;1.08;0.88;;;23.80;55.50;;;;;;4990496;28;20114;-50
2023/08/05 10:00:19;;;;;;;1.10;1.10;;;24.00;55.90;;;;;;4990783;28;20043;-54
2023/08/05 10:02:49;;;;;;;0.90;0.90;;;24.10;54.80;;;;;;4988576;28;20077;-54
2023/08/05 10:05:16;;;;;;;2.25;1.40;;;24.30;54.60;;;;;;4991125;28;20564;-54
2023/08/05 10:07:52;;;;;;;1.10;0.98;;;24.40;54.10;;;;;;4989628;28;20132;-54
2023/08/05 10:10:21;;;;;;;1.45;1.20;;;24.50;53.90;;;;;;4992190;28;20061;-50
2023/08/05 10:12:52;;;;;;;1.20;1.10;;;24.70;54.30;;;;;;4990158;28;20062;-53
2023/08/05 10:15:25;;;;;;;1.10;0.95;;;24.80;53.20;;;;;;4990891;28;20137;-53
2023/08/05 10:17:55;;;;;;;1.40;1.30;;;24.90;52.40;;;;;;4989250;28;20104;-56
2023/08/05 10:20:24;;;;;;;1.38;1.30;;;25.00;52.60;;;;;;4989923;28;20096;-54
2023/08/05 10:23:07;;;;;;;1.88;1.10;;;25.00;52.40;;;;;;4994053;28;20053;-52
2023/08/05 10:25:40;;;;;;;1.45;1.10;;;25.00;52.10;;;;;;4979505;28;21089;-57
2023/08/05 10:28:08;;;;;;;1.75;1.63;;;25.00;51.50;;;;;;4981774;28;20050;-52
2023/08/05 10:30:42;;;;;;;0.93;0.93;;;25.00;52.30;;;;;;4988430;28;20073;-56
2023/08/05 10:33:10;;;;;;;1.85;1.23;;;25.10;51.10;;;;;;4987758;28;20583;-53
2023/08/05 10:35:39;;;;;;;1.92;1.17;;;25.10;52.70;;;;;;4985926;28;20046;-56
2023/08/05 10:38:16;;;;;;;1.30;1.20;;;25.10;52.20;;;;;;4964450;28;20058;-53
2023/08/05 10:41:00;;;;;;;1.25;1.15;;;25.20;51.90;;;;;;4990535;28;20042;-51
2023/08/05 10:43:32;;;;;;;3.60;1.17;;;25.30;51.10;;;;;;4988859;28;20046;-55
2023/08/05 10:46:19;;;;;;;1.60;1.30;;;25.40;51.60;;;;;;4987841;28;20038;-54
2023/08/05 10:48:50;;;;;;;1.40;1.30;;;25.40;51.20;;;;;;4985347;28;20113;-51
2023/08/05 10:51:18;;;;;;;1.77;1.27;;;25.50;51.20;;;;;;4982933;28;20089;-55
2023/08/05 10:53:51;;;;;;;1.70;1.60;;;25.40;52.20;;;;;;4988707;28;20578;-55
2023/08/05 10:56:30;;;;;;;1.73;1.38;;;25.50;51.70;;;;;;4988660;28;20076;-53
2023/08/05 10:59:01;;;;;;;1.40;1.30;;;25.50;51.50;;;;;;4984262;28;20046;-54
2023/08/05 11:01:53;;;;;;;1.60;1.50;;;25.60;52.10;;;;;;4988503;28;20062;-57
2023/08/05 11:04:30;;;;;;;1.70;1.60;;;25.70;51.30;;;;;;4983882;28;20045;-55
2023/08/05 11:07:00;;;;;;;1.90;1.80;;;25.70;50.70;;;;;;5009810;23;20129;-53
2023/08/05 11:09:27;;;;;;;1.90;1.80;;;25.80;51.80;;;;;;4976261;28;20112;-54
2023/08/05 11:11:53;;;;;;;2.60;1.65;;;25.80;51.60;;;;;;4973115;28;20509;-54
2023/08/05 11:14:21;;;;;;;1.50;1.40;;;25.90;51.20;;;;;;4989510;28;20039;-54
2023/08/05 11:16:48;;;;;;;2.00;1.70;;;25.90;51.70;;;;;;4965521;28;20074;-54
2023/08/05 11:19:17;;;;;;;2.20;2.00;;;26.00;50.40;;;;;;4967916;28;20098;-54
2023/08/05 11:21:47;;;;;;;2.13;2.03;;;26.00;50.30;;;;;;4968701;28;20043;-54
2023/08/05 11:24:17;;;;;;;1.45;1.35;;;26.00;49.80;;;;;;4970142;28;20063;-54
2023/08/05 11:26:44;;;;;;;1.60;1.50;;;26.00;51.10;;;;;;4975031;28;20413;-54
2023/08/05 11:29:11;;;;;;;2.05;1.95;;;25.90;50.50;;;;;;4964224;28;20047;-54
2023/08/05 11:31:48;;;;;;;1.52;1.42;;;25.90;51.00;;;;;;4968752;28;20117;-54
2023/08/05 11:34:22;;;;;;;2.47;2.00;;;25.90;51.10;;;;;;4969630;28;20043;-51
2023/08/05 11:36:57;;;;;;;2.38;1.90;;;25.90;49.30;;;;;;4968654;28;20046;-54
2023/08/05 11:39:24;;;;;;;3.00;2.17;;;25.90;49.60;;;;;;4963879;28;20043;-57
2023/08/05 11:41:52;;;;;;;2.60;2.38;;;25.80;50.80;;;;;;4968559;28;20047;-54
2023/08/05 11:44:20;;;;;;;4.78;2.47;;;25.70;52.50;;;;;;4965361;28;20090;-54
2023/08/05 11:46:46;;;;;;;3.33;2.28;;;25.50;53.50;;;;;;4966745;28;20050;-55
2023/08/05 11:49:26;;;;;;;4.15;2.08;;;25.30;55.00;;;;;;4965665;28;20051;-52
2023/08/05 11:51:53;;;;;;;2.25;2.15;;;25.00;54.30;;;;;;4967724;28;20425;-56
2023/08/05 11:54:34;;;;;;;3.15;2.33;;;24.70;56.10;;;;;;4969424;28;20094;-54
2023/08/05 11:57:16;;;;;;;3.03;2.60;;;24.40;58.10;;;;;;4967116;28;20114;-57
2023/08/05 11:59:45;;;;;;;3.40;2.75;;;24.10;57.20;;;;;;4967125;28;20102;-54
2023/08/05 12:02:16;;;;;;;;;;;23.90;58.10;;;;;;4963787;28;20489;-56
2023/08/05 12:04:51;;;;;;;3.42;2.75;;;23.80;57.40;;;;;;4968095;28;19977;-54
2023/08/05 12:07:23;;;;;;;2.65;2.45;;;23.50;58.00;;;;;;4970074;28;20051;-54
2023/08/05 12:10:16;;;;;;;2.88;2.60;;;23.40;60.10;;;;;;4971359;28;20465;-55
2023/08/05 12:12:47;;;;;;;5.75;3.28;;;23.30;60.10;;;;;;4973374;28;20091;-56
2023/08/05 12:15:26;;;;;;;2.67;2.47;;;23.20;61.10;;;;;;4974413;28;20043;-52
2023/08/05 12:17:57;;;;;;;3.80;2.78;;;23.20;61.90;;;;;;4970399;28;20409;-50
2023/08/05 12:20:25;;;;;;;2.92;2.50;;;23.20;61.40;;;;;;4968938;28;20412;-54
2023/08/05 12:22:54;;;;;;;4.60;3.15;;;23.20;62.20;;;;;;4973097;28;20074;-57
2023/08/05 12:25:24;;;;;;;3.05;2.83;;;23.30;61.60;;;;;;4966941;28;20497;-55
2023/08/05 12:27:51;;;;;;;2.83;2.63;;;23.40;62.20;;;;;;4972503;28;20042;-53
2023/08/05 12:30:18;;;;;;;2.10;1.90;;;23.40;61.30;;;;;;4971111;28;20398;-53
2023/08/05 12:32:45;;;;;;;2.28;1.92;;;23.50;60.10;;;;;;4976710;28;20411;-56
2023/08/05 12:35:12;;;;;;;1.80;1.70;;;23.60;59.00;;;;;;4971770;28;20509;-54
2023/08/05 12:37:42;;;;;;;2.95;2.22;;;23.70;58.10;;;;;;4972195;28;20043;-56
2023/08/05 12:40:10;;;;;;;2.20;2.00;;;23.80;57.00;;;;;;4983640;28;20046;-56
2023/08/05 12:42:38;;;;;;;1.77;1.67;;;23.80;56.30;;;;;;4972675;28;20094;-57
2023/08/05 12:45:05;;;;;;;1.98;1.70;;;23.80;56.10;;;;;;4973855;28;20047;-54
2023/08/05 12:47:38;;;;;;;2.67;1.90;;;23.90;55.20;;;;;;4970779;28;20047;-57
2023/08/05 12:50:06;;;;;;;4.30;1.75;;;23.80;54.70;;;;;;4970309;28;20053;-54
2023/08/05 12:52:32;;;;;;;1.70;1.38;;;23.70;55.10;;;;;;4972353;28;20461;-54
2023/08/05 12:54:59;;;;;;;2.17;1.98;;;23.70;55.10;;;;;;4972862;28;20046;-54
2023/08/05 12:57:27;;;;;;;1.77;1.67;;;23.60;54.80;;;;;;4964393;28;20069;-54
2023/08/05 12:59:53;;;;;;;2.00;1.80;;;23.50;54.50;;;;;;4970281;28;20532;-52